Campbell Foss — WDC7754 — position and weather

sailwx.info

Track history (hours):
 
Tides and Currents Weather Stations Pressure Air Temp Water Temp Dewpoint Dewpoint Depression Visibility Wind Speed Wind Dir Waves Ship Positions

Campbell Foss

Owner: Foss Maritime Co., Seattle, WA. More information available from US FCC via Universal Licensing System and Coast Guard Vessel Documentation Center.

Last reported at 2015-Aug-29 16:33 UTC. Time now 2015-Aug-29 16:58 UTC.
Position N 33°46' W 118°13'.

Length 23 m; draft 16 m.

Type: Tug. MMSI: 367076360.

Date/timePositionNaut miles runAvg speedWind from/ knotsBaromVisibWave heightAir tempDewpointWater temp
2015-Aug-29 16:33N 33°46' W 118°13'0 0.0
2015-Aug-29 15:33N 33°46' W 118°13'0 0.0
2015-Aug-29 14:32N 33°46' W 118°13'1 0.6
2015-Aug-29 13:30N 33°46' W 118°13'1 0.4
2015-Aug-29 11:30N 33°45' W 118°14'1 1.3
2015-Aug-29 10:30N 33°45' W 118°13'0 0.3
2015-Aug-29 09:32N 33°44' W 118°12'0 0.3
2015-Aug-29 08:22N 33°45' W 118°12'1 1.3
2015-Aug-29 07:33N 33°45' W 118°13'0 0.4
2015-Aug-29 06:29N 33°46' W 118°13'0 0.0
2015-Aug-29 05:33N 33°46' W 118°13'1 0.8
2015-Aug-29 04:15N 33°45' W 118°13'2 2.6
2015-Aug-29 03:28N 33°44' W 118°15'2 1.9
2015-Aug-29 02:24N 33°45' W 118°13'1 1.0
2015-Aug-29 01:32N 33°46' W 118°13'1 0.9
2015-Aug-29 00:33N 33°46' W 118°14'3 2.6
2015-Aug-28 23:27N 33°43' W 118°14'2 2.6
2015-Aug-28 22:32N 33°45' W 118°13'2 2.3
2015-Aug-28 21:34N 33°46' W 118°16'1 0.9
2015-Aug-28 20:32N 33°46' W 118°15'1 1.1
2015-Aug-28 19:34N 33°46' W 118°13'14 4.7
2015-Aug-28 16:33N 33°54' W 118°27'0 0.4
2015-Aug-28 15:31N 33°54' W 118°27'1 1.0
2015-Aug-28 14:33N 33°53' W 118°28'12 5.8
2015-Aug-28 12:30N 33°43' W 118°21'7 7.6
2015-Aug-28 11:32N 33°45' W 118°13'0 0.4
2015-Aug-28 10:32N 33°46' W 118°13'0 0.0
2015-Aug-28 09:33N 33°46' W 118°13'0 0.0
2015-Aug-28 08:24N 33°46' W 118°13'0 0.0
2015-Aug-28 07:31N 33°46' W 118°13'0 0.0
2015-Aug-28 06:12N 33°46' W 118°13'0 0.0
2015-Aug-28 05:33N 33°46' W 118°13'0 0.2
2015-Aug-28 04:34N 33°46' W 118°13'2 2.0
2015-Aug-28 03:33N 33°45' W 118°16'0 0.4
2015-Aug-28 02:30N 33°46' W 118°16'0 0.1
2015-Aug-28 01:31N 33°46' W 118°16'0 0.1
2015-Aug-28 00:32N 33°46' W 118°16'0 0.0
2015-Aug-27 23:13N 33°46' W 118°16'0 0.0
2015-Aug-27 22:32N 33°46' W 118°16'3 3.4
2015-Aug-27 21:33N 33°45' W 118°12'1 1.2
2015-Aug-27 20:34N 33°44' W 118°11'3 2.6
2015-Aug-27 19:34N 33°46' W 118°13'11 4.7
2015-Aug-27 17:12N 33°47' W 118°26'710.0
2015-Aug-27 16:31N 33°53' W 118°27'1 1.5
2015-Aug-27 15:34N 33°55' W 118°27'1 1.3
2015-Aug-27 14:34N 33°54' W 118°28'7 6.1
2015-Aug-27 13:25N 33°47' W 118°26'1010.0
2015-Aug-27 12:26N 33°42' W 118°16'3 3.9
2015-Aug-27 11:33N 33°45' W 118°14'1 1.0
2015-Aug-27 10:34N 33°45' W 118°13'0 0.4
2015-Aug-27 09:34N 33°46' W 118°13'0 0.0
2015-Aug-27 08:34N 33°46' W 118°13'0 0.0
2015-Aug-27 07:34N 33°46' W 118°13'0 0.1
2015-Aug-27 06:34N 33°46' W 118°13'0 0.0
2015-Aug-27 05:33N 33°46' W 118°13'1 1.1
2015-Aug-27 04:34N 33°46' W 118°14'1 1.1
2015-Aug-27 03:34N 33°46' W 118°16'0 0.0
2015-Aug-27 02:34N 33°46' W 118°16'2 1.5
2015-Aug-27 01:32N 33°44' W 118°17'1 1.3
2015-Aug-27 00:34N 33°46' W 118°17'2 2.1
2015-Aug-26 23:34N 33°46' W 118°14'1 1.1
2015-Aug-26 22:33N 33°46' W 118°13'1 1.3
2015-Aug-26 21:33N 33°45' W 118°13'1 0.7
2015-Aug-26 20:33N 33°46' W 118°13'0 0.0
2015-Aug-26 19:34N 33°46' W 118°13'0 0.0
2015-Aug-26 18:34N 33°46' W 118°13'0 0.0
2015-Aug-26 17:33N 33°46' W 118°13'1 1.3
2015-Aug-26 16:34N 33°45' W 118°13'3 3.2
2015-Aug-26 15:33N 33°43' W 118°16'3 2.9
2015-Aug-26 14:34N 33°46' W 118°15'3 2.8
2015-Aug-26 13:33N 33°44' W 118°12'1 0.8
2015-Aug-26 12:34N 33°44' W 118°12'1 1.2
2015-Aug-26 11:34N 33°45' W 118°13'1 0.5
2015-Aug-26 10:27N 33°45' W 118°13'0 0.0
2015-Aug-26 09:31N 33°45' W 118°13'1 1.0
2015-Aug-26 08:33N 33°44' W 118°13'1 1.5
2015-Aug-26 07:33N 33°46' W 118°13'0 0.0
2015-Aug-26 06:33N 33°46' W 118°13'2 1.7
2015-Aug-26 05:33N 33°46' W 118°15'1 0.5
2015-Aug-26 04:33N 33°46' W 118°16'0 0.0
2015-Aug-26 03:33N 33°46' W 118°16'0 0.0
2015-Aug-26 02:33N 33°46' W 118°16'1 0.6
2015-Aug-26 01:34N 33°45' W 118°16'3 2.9
2015-Aug-26 00:34N 33°44' W 118°13'0 0.1
2015-Aug-25 22:33N 33°44' W 118°13'1 1.3
2015-Aug-25 21:32N 33°45' W 118°12'0 0.4
2015-Aug-25 20:33N 33°45' W 118°13'1 1.0
2015-Aug-25 19:33N 33°46' W 118°13'0 0.0
2015-Aug-25 18:33N 33°46' W 118°13'3 2.5
2015-Aug-25 17:11N 33°44' W 118°16'0 0.0
2015-Aug-25 16:33N 33°44' W 118°16'1 1.0
2015-Aug-25 15:33N 33°44' W 118°15'2 2.0
2015-Aug-25 14:33N 33°46' W 118°16'2 1.7
2015-Aug-25 13:23N 33°44' W 118°16'1 1.4
2015-Aug-25 12:33N 33°45' W 118°17'3 3.0
2015-Aug-25 11:33N 33°43' W 118°15'3 3.2
2015-Aug-25 10:33N 33°46' W 118°13'0 0.0
2015-Aug-25 09:33N 33°46' W 118°13'0 0.0
2015-Aug-25 08:33N 33°46' W 118°13'0 0.0
2015-Aug-25 07:33N 33°46' W 118°13'2 2.0
2015-Aug-25 06:33N 33°44' W 118°14'2 2.4
2015-Aug-25 05:33N 33°45' W 118°16'0 0.5
2015-Aug-25 04:31N 33°46' W 118°16'0 0.0
2015-Aug-25 03:33N 33°46' W 118°16'0 0.1
2015-Aug-25 02:34N 33°46' W 118°16'0 0.0
2015-Aug-25 01:34N 33°46' W 118°16'1 1.2
2015-Aug-25 00:33N 33°45' W 118°16'2 1.5
2015-Aug-24 23:33N 33°43' W 118°16'3 2.6
2015-Aug-24 22:34N 33°46' W 118°16'0 0.0
2015-Aug-24 21:33N 33°46' W 118°16'1 1.3
2015-Aug-24 20:33N 33°45' W 118°16'3 2.7
2015-Aug-24 19:33N 33°45' W 118°13'1 1.0
2015-Aug-24 18:33N 33°46' W 118°13'0 0.0
2015-Aug-24 17:33N 33°46' W 118°13'1 0.8
2015-Aug-24 16:33N 33°46' W 118°14'3 1.9
2015-Aug-24 15:05N 33°43' W 118°13'2 3.4
2015-Aug-24 14:33N 33°45' W 118°12'0 0.0
2015-Aug-24 13:33N 33°45' W 118°12'2 1.6
2015-Aug-24 12:33N 33°44' W 118°13'2 1.7
2015-Aug-24 11:33N 33°44' W 118°15'3 2.7
2015-Aug-24 10:33N 33°46' W 118°13'0 0.1
2015-Aug-24 09:33N 33°46' W 118°13'0 0.0
2015-Aug-24 08:33N 33°46' W 118°13'0 0.0
2015-Aug-24 07:33N 33°46' W 118°13'0 0.0
2015-Aug-24 06:33N 33°46' W 118°13'0 0.0
2015-Aug-24 05:33N 33°46' W 118°13'0 0.0
2015-Aug-24 04:33N 33°46' W 118°13'0 0.0
2015-Aug-24 03:33N 33°46' W 118°13'2 1.5
2015-Aug-24 02:33N 33°45' W 118°12'1 0.6
2015-Aug-24 01:33N 33°45' W 118°12'0 0.0
2015-Aug-24 00:33N 33°45' W 118°12'4 3.1
2015-Aug-23 23:25N 33°44' W 118°17'2 2.0
2015-Aug-23 22:33N 33°46' W 118°16'0 0.1
2015-Aug-23 21:33N 33°46' W 118°16'0 0.0
2015-Aug-23 20:33N 33°46' W 118°16'0 0.0
2015-Aug-23 19:33N 33°46' W 118°16'2 2.1
2015-Aug-23 18:33N 33°46' W 118°13'0 0.0
2015-Aug-23 17:33N 33°46' W 118°13'0 0.5
2015-Aug-23 16:33N 33°46' W 118°13'0 0.1
2015-Aug-23 15:33N 33°46' W 118°13'0 0.3
2015-Aug-23 14:33N 33°46' W 118°13'4 3.1
2015-Aug-23 13:24N 33°44' W 118°16'2 2.1
2015-Aug-23 12:20N 33°43' W 118°14'2 2.6
2015-Aug-23 11:33N 33°45' W 118°13'1 1.2
2015-Aug-23 10:33N 33°46' W 118°13'0 0.0
2015-Aug-23 09:33N 33°46' W 118°13'0 0.0
2015-Aug-23 08:33N 33°46' W 118°13'0 0.0
2015-Aug-23 07:33N 33°46' W 118°13'0 0.0
2015-Aug-23 06:33N 33°46' W 118°13'0 0.0
2015-Aug-23 05:33N 33°46' W 118°13'0 0.0
2015-Aug-23 04:33N 33°46' W 118°13'0 0.0
2015-Aug-23 03:33N 33°46' W 118°13'0 0.0
2015-Aug-23 02:33N 33°46' W 118°13'0 0.0
2015-Aug-23 01:33N 33°46' W 118°13'0 0.0
2015-Aug-23 00:33N 33°46' W 118°13'0 0.0
2015-Aug-22 23:33N 33°46' W 118°13'0 0.0
2015-Aug-22 22:33N 33°46' W 118°13'0 0.0
2015-Aug-22 21:33N 33°46' W 118°13'0 0.0
2015-Aug-22 20:33N 33°46' W 118°13'0 0.0
2015-Aug-22 19:33N 33°46' W 118°13'0 0.0
2015-Aug-22 18:33N 33°46' W 118°13'1 0.8
2015-Aug-22 17:33N 33°46' W 118°13'3 2.1
2015-Aug-22 16:06N 33°44' W 118°17'2 2.6
2015-Aug-22 15:31N 33°46' W 118°16'0 0.0
2015-Aug-22 14:33N 33°46' W 118°16'0 0.0
2015-Aug-22 13:33N 33°46' W 118°16'1 1.4
2015-Aug-22 12:33N 33°45' W 118°16'1 1.4
2015-Aug-22 11:33N 33°46' W 118°15'2 1.8
2015-Aug-22 10:33N 33°46' W 118°13'0 0.0
2015-Aug-22 09:33N 33°46' W 118°13'0 0.0
2015-Aug-22 08:33N 33°46' W 118°13'0 0.0
2015-Aug-22 07:33N 33°46' W 118°13'0 0.1
2015-Aug-22 06:33N 33°46' W 118°13'1 0.8
2015-Aug-22 05:33N 33°46' W 118°14'3 2.0
2015-Aug-22 04:12N 33°45' W 118°17'2 2.5
2015-Aug-22 03:33N 33°46' W 118°16'3 3.0
2015-Aug-22 02:33N 33°45' W 118°12'0 0.4
2015-Aug-22 01:33N 33°45' W 118°12'0 0.0
2015-Aug-22 00:33N 33°45' W 118°12'1 1.2
2015-Aug-21 23:33N 33°44' W 118°11'0 0.0
2015-Aug-21 22:19N 33°44' W 118°11'2 3.1
2015-Aug-21 21:33N 33°45' W 118°14'1 1.2
2015-Aug-21 20:32N 33°44' W 118°13'0 0.2
2015-Aug-21 19:33N 33°44' W 118°13'0 0.0
2015-Aug-21 18:30N 33°44' W 118°13'1 0.6
2015-Aug-21 17:33N 33°45' W 118°12'0 0.0
2015-Aug-21 16:33N 33°45' W 118°12'3 2.7
2015-Aug-21 15:26N 33°45' W 118°16'1 1.0
2015-Aug-21 14:33N 33°46' W 118°16'2 1.1
2015-Aug-21 12:33N 33°44' W 118°14'1 0.9
2015-Aug-21 11:33N 33°45' W 118°14'1 0.7
2015-Aug-21 10:26N 33°46' W 118°13'0 0.0
2015-Aug-21 09:33N 33°46' W 118°13'0 0.0
2015-Aug-21 08:33N 33°46' W 118°13'0 0.0
2015-Aug-21 07:33N 33°46' W 118°13'0 0.0
2015-Aug-21 06:33N 33°46' W 118°13'0 0.0
2015-Aug-21 05:33N 33°46' W 118°13'3 2.7
2015-Aug-21 04:32N 33°44' W 118°15'0 0.0
2015-Aug-21 02:29N 33°44' W 118°16'1 1.4
2015-Aug-21 01:32N 33°45' W 118°16'1 1.0
2015-Aug-21 00:33N 33°46' W 118°16'0 0.3
2015-Aug-20 23:33N 33°46' W 118°16'3 1.4
2015-Aug-20 21:27N 33°43' W 118°15'3 3.5
2015-Aug-20 20:33N 33°46' W 118°13'0 0.0
2015-Aug-20 19:33N 33°46' W 118°13'0 0.0
2015-Aug-20 18:33N 33°46' W 118°13'0 0.0
2015-Aug-20 17:33N 33°46' W 118°13'0 0.0
2015-Aug-20 16:33N 33°46' W 118°13'0 0.0
2015-Aug-20 15:33N 33°46' W 118°13'0 0.0
2015-Aug-20 14:33N 33°46' W 118°13'1 0.6
2015-Aug-20 13:33N 33°46' W 118°14'0 0.2
2015-Aug-20 12:33N 33°46' W 118°14'1 0.6
2015-Aug-20 11:33N 33°46' W 118°13'0 0.0
2015-Aug-20 10:33N 33°46' W 118°13'1 1.0
2015-Aug-20 09:33N 33°45' W 118°12'1 1.3
2015-Aug-20 08:33N 33°44' W 118°12'2 2.2
2015-Aug-20 07:32N 33°46' W 118°13'0 0.0
2015-Aug-20 06:33N 33°46' W 118°13'1 0.7
2015-Aug-20 05:33N 33°46' W 118°13'3 3.2
2015-Aug-20 04:33N 33°43' W 118°11'3 3.1
2015-Aug-20 03:33N 33°45' W 118°15'1 1.4
2015-Aug-20 02:32N 33°44' W 118°13'2 2.5
2015-Aug-20 01:33N 33°45' W 118°16'0 0.2
2015-Aug-20 00:33N 33°45' W 118°16'1 0.5
2015-Aug-19 23:33N 33°46' W 118°16'0 0.1
2015-Aug-19 22:33N 33°46' W 118°16'0 0.0
2015-Aug-19 21:32N 33°46' W 118°16'0 0.0
2015-Aug-19 20:28N 33°46' W 118°16'1 1.5
2015-Aug-19 19:33N 33°46' W 118°14'1 0.9
2015-Aug-19 18:33N 33°46' W 118°13'0 0.0
2015-Aug-19 17:33N 33°46' W 118°13'  
Track history (hours):
 
Tides and Currents Weather Stations Pressure Air Temp Water Temp Dewpoint Dewpoint Depression Visibility Wind Speed Wind Dir Waves Ship Positions

Campbell Foss

Owner: Foss Maritime Co., Seattle, WA. More information available from US FCC via Universal Licensing System and Coast Guard Vessel Documentation Center.

Last reported at 2015-Aug-29 16:33 UTC. Time now 2015-Aug-29 16:58 UTC.
Position N 33°46' W 118°13'.

Length 23 m; draft 16 m.

Type: Tug. MMSI: 367076360.

Date/timePositionNaut miles runAvg speedWind from/ knotsBaromVisibWave heightAir tempDewpointWater temp
2015-Aug-29 16:33N 33°46' W 118°13'0 0.0
2015-Aug-29 15:33N 33°46' W 118°13'0 0.0
2015-Aug-29 14:32N 33°46' W 118°13'1 0.6
2015-Aug-29 13:30N 33°46' W 118°13'1 0.4
2015-Aug-29 11:30N 33°45' W 118°14'1 1.3
2015-Aug-29 10:30N 33°45' W 118°13'0 0.3
2015-Aug-29 09:32N 33°44' W 118°12'0 0.3
2015-Aug-29 08:22N 33°45' W 118°12'1 1.3
2015-Aug-29 07:33N 33°45' W 118°13'0 0.4
2015-Aug-29 06:29N 33°46' W 118°13'0 0.0
2015-Aug-29 05:33N 33°46' W 118°13'1 0.8
2015-Aug-29 04:15N 33°45' W 118°13'2 2.6
2015-Aug-29 03:28N 33°44' W 118°15'2 1.9
2015-Aug-29 02:24N 33°45' W 118°13'1 1.0
2015-Aug-29 01:32N 33°46' W 118°13'1 0.9
2015-Aug-29 00:33N 33°46' W 118°14'3 2.6
2015-Aug-28 23:27N 33°43' W 118°14'2 2.6
2015-Aug-28 22:32N 33°45' W 118°13'2 2.3
2015-Aug-28 21:34N 33°46' W 118°16'1 0.9
2015-Aug-28 20:32N 33°46' W 118°15'1 1.1
2015-Aug-28 19:34N 33°46' W 118°13'14 4.7
2015-Aug-28 16:33N 33°54' W 118°27'0 0.4
2015-Aug-28 15:31N 33°54' W 118°27'1 1.0
2015-Aug-28 14:33N 33°53' W 118°28'12 5.8
2015-Aug-28 12:30N 33°43' W 118°21'7 7.6
2015-Aug-28 11:32N 33°45' W 118°13'0 0.4
2015-Aug-28 10:32N 33°46' W 118°13'0 0.0
2015-Aug-28 09:33N 33°46' W 118°13'0 0.0
2015-Aug-28 08:24N 33°46' W 118°13'0 0.0
2015-Aug-28 07:31N 33°46' W 118°13'0 0.0
2015-Aug-28 06:12N 33°46' W 118°13'0 0.0
2015-Aug-28 05:33N 33°46' W 118°13'0 0.2
2015-Aug-28 04:34N 33°46' W 118°13'2 2.0
2015-Aug-28 03:33N 33°45' W 118°16'0 0.4
2015-Aug-28 02:30N 33°46' W 118°16'0 0.1
2015-Aug-28 01:31N 33°46' W 118°16'0 0.1
2015-Aug-28 00:32N 33°46' W 118°16'0 0.0
2015-Aug-27 23:13N 33°46' W 118°16'0 0.0
2015-Aug-27 22:32N 33°46' W 118°16'3 3.4
2015-Aug-27 21:33N 33°45' W 118°12'1 1.2
2015-Aug-27 20:34N 33°44' W 118°11'3 2.6
2015-Aug-27 19:34N 33°46' W 118°13'11 4.7
2015-Aug-27 17:12N 33°47' W 118°26'710.0
2015-Aug-27 16:31N 33°53' W 118°27'1 1.5
2015-Aug-27 15:34N 33°55' W 118°27'1 1.3
2015-Aug-27 14:34N 33°54' W 118°28'7 6.1
2015-Aug-27 13:25N 33°47' W 118°26'1010.0
2015-Aug-27 12:26N 33°42' W 118°16'3 3.9
2015-Aug-27 11:33N 33°45' W 118°14'1 1.0
2015-Aug-27 10:34N 33°45' W 118°13'0 0.4
2015-Aug-27 09:34N 33°46' W 118°13'0 0.0
2015-Aug-27 08:34N 33°46' W 118°13'0 0.0
2015-Aug-27 07:34N 33°46' W 118°13'0 0.1
2015-Aug-27 06:34N 33°46' W 118°13'0 0.0
2015-Aug-27 05:33N 33°46' W 118°13'1 1.1
2015-Aug-27 04:34N 33°46' W 118°14'1 1.1
2015-Aug-27 03:34N 33°46' W 118°16'0 0.0
2015-Aug-27 02:34N 33°46' W 118°16'2 1.5
2015-Aug-27 01:32N 33°44' W 118°17'1 1.3
2015-Aug-27 00:34N 33°46' W 118°17'2 2.1
2015-Aug-26 23:34N 33°46' W 118°14'1 1.1
2015-Aug-26 22:33N 33°46' W 118°13'1 1.3
2015-Aug-26 21:33N 33°45' W 118°13'1 0.7
2015-Aug-26 20:33N 33°46' W 118°13'0 0.0
2015-Aug-26 19:34N 33°46' W 118°13'0 0.0
2015-Aug-26 18:34N 33°46' W 118°13'0 0.0
2015-Aug-26 17:33N 33°46' W 118°13'1 1.3
2015-Aug-26 16:34N 33°45' W 118°13'3 3.2
2015-Aug-26 15:33N 33°43' W 118°16'3 2.9
2015-Aug-26 14:34N 33°46' W 118°15'3 2.8
2015-Aug-26 13:33N 33°44' W 118°12'1 0.8
2015-Aug-26 12:34N 33°44' W 118°12'1 1.2
2015-Aug-26 11:34N 33°45' W 118°13'1 0.5
2015-Aug-26 10:27N 33°45' W 118°13'0 0.0
2015-Aug-26 09:31N 33°45' W 118°13'1 1.0
2015-Aug-26 08:33N 33°44' W 118°13'1 1.5
2015-Aug-26 07:33N 33°46' W 118°13'0 0.0
2015-Aug-26 06:33N 33°46' W 118°13'2 1.7
2015-Aug-26 05:33N 33°46' W 118°15'1 0.5
2015-Aug-26 04:33N 33°46' W 118°16'0 0.0
2015-Aug-26 03:33N 33°46' W 118°16'0 0.0
2015-Aug-26 02:33N 33°46' W 118°16'1 0.6
2015-Aug-26 01:34N 33°45' W 118°16'3 2.9
2015-Aug-26 00:34N 33°44' W 118°13'0 0.1
2015-Aug-25 22:33N 33°44' W 118°13'1 1.3
2015-Aug-25 21:32N 33°45' W 118°12'0 0.4
2015-Aug-25 20:33N 33°45' W 118°13'1 1.0
2015-Aug-25 19:33N 33°46' W 118°13'0 0.0
2015-Aug-25 18:33N 33°46' W 118°13'3 2.5
2015-Aug-25 17:11N 33°44' W 118°16'0 0.0
2015-Aug-25 16:33N 33°44' W 118°16'1 1.0
2015-Aug-25 15:33N 33°44' W 118°15'2 2.0
2015-Aug-25 14:33N 33°46' W 118°16'2 1.7
2015-Aug-25 13:23N 33°44' W 118°16'1 1.4
2015-Aug-25 12:33N 33°45' W 118°17'3 3.0
2015-Aug-25 11:33N 33°43' W 118°15'3 3.2
2015-Aug-25 10:33N 33°46' W 118°13'0 0.0
2015-Aug-25 09:33N 33°46' W 118°13'0 0.0
2015-Aug-25 08:33N 33°46' W 118°13'0 0.0
2015-Aug-25 07:33N 33°46' W 118°13'2 2.0
2015-Aug-25 06:33N 33°44' W 118°14'2 2.4
2015-Aug-25 05:33N 33°45' W 118°16'0 0.5
2015-Aug-25 04:31N 33°46' W 118°16'0 0.0
2015-Aug-25 03:33N 33°46' W 118°16'0 0.1
2015-Aug-25 02:34N 33°46' W 118°16'0 0.0
2015-Aug-25 01:34N 33°46' W 118°16'1 1.2
2015-Aug-25 00:33N 33°45' W 118°16'2 1.5
2015-Aug-24 23:33N 33°43' W 118°16'3 2.6
2015-Aug-24 22:34N 33°46' W 118°16'0 0.0
2015-Aug-24 21:33N 33°46' W 118°16'1 1.3
2015-Aug-24 20:33N 33°45' W 118°16'3 2.7
2015-Aug-24 19:33N 33°45' W 118°13'1 1.0
2015-Aug-24 18:33N 33°46' W 118°13'0 0.0
2015-Aug-24 17:33N 33°46' W 118°13'1 0.8
2015-Aug-24 16:33N 33°46' W 118°14'3 1.9
2015-Aug-24 15:05N 33°43' W 118°13'2 3.4
2015-Aug-24 14:33N 33°45' W 118°12'0 0.0
2015-Aug-24 13:33N 33°45' W 118°12'2 1.6
2015-Aug-24 12:33N 33°44' W 118°13'2 1.7
2015-Aug-24 11:33N 33°44' W 118°15'3 2.7
2015-Aug-24 10:33N 33°46' W 118°13'0 0.1
2015-Aug-24 09:33N 33°46' W 118°13'0 0.0
2015-Aug-24 08:33N 33°46' W 118°13'0 0.0
2015-Aug-24 07:33N 33°46' W 118°13'0 0.0
2015-Aug-24 06:33N 33°46' W 118°13'0 0.0
2015-Aug-24 05:33N 33°46' W 118°13'0 0.0
2015-Aug-24 04:33N 33°46' W 118°13'0 0.0
2015-Aug-24 03:33N 33°46' W 118°13'2 1.5
2015-Aug-24 02:33N 33°45' W 118°12'1 0.6
2015-Aug-24 01:33N 33°45' W 118°12'0 0.0
2015-Aug-24 00:33N 33°45' W 118°12'4 3.1
2015-Aug-23 23:25N 33°44' W 118°17'2 2.0
2015-Aug-23 22:33N 33°46' W 118°16'0 0.1
2015-Aug-23 21:33N 33°46' W 118°16'0 0.0
2015-Aug-23 20:33N 33°46' W 118°16'0 0.0
2015-Aug-23 19:33N 33°46' W 118°16'2 2.1
2015-Aug-23 18:33N 33°46' W 118°13'0 0.0
2015-Aug-23 17:33N 33°46' W 118°13'0 0.5
2015-Aug-23 16:33N 33°46' W 118°13'0 0.1
2015-Aug-23 15:33N 33°46' W 118°13'0 0.3
2015-Aug-23 14:33N 33°46' W 118°13'4 3.1
2015-Aug-23 13:24N 33°44' W 118°16'2 2.1
2015-Aug-23 12:20N 33°43' W 118°14'2 2.6
2015-Aug-23 11:33N 33°45' W 118°13'1 1.2
2015-Aug-23 10:33N 33°46' W 118°13'0 0.0
2015-Aug-23 09:33N 33°46' W 118°13'0 0.0
2015-Aug-23 08:33N 33°46' W 118°13'0 0.0
2015-Aug-23 07:33N 33°46' W 118°13'0 0.0
2015-Aug-23 06:33N 33°46' W 118°13'0 0.0
2015-Aug-23 05:33N 33°46' W 118°13'0 0.0
2015-Aug-23 04:33N 33°46' W 118°13'0 0.0
2015-Aug-23 03:33N 33°46' W 118°13'0 0.0
2015-Aug-23 02:33N 33°46' W 118°13'0 0.0
2015-Aug-23 01:33N 33°46' W 118°13'0 0.0
2015-Aug-23 00:33N 33°46' W 118°13'0 0.0
2015-Aug-22 23:33N 33°46' W 118°13'0 0.0
2015-Aug-22 22:33N 33°46' W 118°13'0 0.0
2015-Aug-22 21:33N 33°46' W 118°13'0 0.0
2015-Aug-22 20:33N 33°46' W 118°13'0 0.0
2015-Aug-22 19:33N 33°46' W 118°13'0 0.0
2015-Aug-22 18:33N 33°46' W 118°13'1 0.8
2015-Aug-22 17:33N 33°46' W 118°13'3 2.1
2015-Aug-22 16:06N 33°44' W 118°17'2 2.6
2015-Aug-22 15:31N 33°46' W 118°16'0 0.0
2015-Aug-22 14:33N 33°46' W 118°16'0 0.0
2015-Aug-22 13:33N 33°46' W 118°16'1 1.4
2015-Aug-22 12:33N 33°45' W 118°16'1 1.4
2015-Aug-22 11:33N 33°46' W 118°15'2 1.8
2015-Aug-22 10:33N 33°46' W 118°13'0 0.0
2015-Aug-22 09:33N 33°46' W 118°13'0 0.0
2015-Aug-22 08:33N 33°46' W 118°13'0 0.0
2015-Aug-22 07:33N 33°46' W 118°13'0 0.1
2015-Aug-22 06:33N 33°46' W 118°13'1 0.8
2015-Aug-22 05:33N 33°46' W 118°14'3 2.0
2015-Aug-22 04:12N 33°45' W 118°17'2 2.5
2015-Aug-22 03:33N 33°46' W 118°16'3 3.0
2015-Aug-22 02:33N 33°45' W 118°12'0 0.4
2015-Aug-22 01:33N 33°45' W 118°12'0 0.0
2015-Aug-22 00:33N 33°45' W 118°12'1 1.2
2015-Aug-21 23:33N 33°44' W 118°11'0 0.0
2015-Aug-21 22:19N 33°44' W 118°11'2 3.1
2015-Aug-21 21:33N 33°45' W 118°14'1 1.2
2015-Aug-21 20:32N 33°44' W 118°13'0 0.2
2015-Aug-21 19:33N 33°44' W 118°13'0 0.0
2015-Aug-21 18:30N 33°44' W 118°13'1 0.6
2015-Aug-21 17:33N 33°45' W 118°12'0 0.0
2015-Aug-21 16:33N 33°45' W 118°12'3 2.7
2015-Aug-21 15:26N 33°45' W 118°16'1 1.0
2015-Aug-21 14:33N 33°46' W 118°16'2 1.1
2015-Aug-21 12:33N 33°44' W 118°14'1 0.9
2015-Aug-21 11:33N 33°45' W 118°14'1 0.7
2015-Aug-21 10:26N 33°46' W 118°13'0 0.0
2015-Aug-21 09:33N 33°46' W 118°13'0 0.0
2015-Aug-21 08:33N 33°46' W 118°13'0 0.0
2015-Aug-21 07:33N 33°46' W 118°13'0 0.0
2015-Aug-21 06:33N 33°46' W 118°13'0 0.0
2015-Aug-21 05:33N 33°46' W 118°13'3 2.7
2015-Aug-21 04:32N 33°44' W 118°15'0 0.0
2015-Aug-21 02:29N 33°44' W 118°16'1 1.4
2015-Aug-21 01:32N 33°45' W 118°16'1 1.0
2015-Aug-21 00:33N 33°46' W 118°16'0 0.3
2015-Aug-20 23:33N 33°46' W 118°16'3 1.4
2015-Aug-20 21:27N 33°43' W 118°15'3 3.5
2015-Aug-20 20:33N 33°46' W 118°13'0 0.0
2015-Aug-20 19:33N 33°46' W 118°13'0 0.0
2015-Aug-20 18:33N 33°46' W 118°13'0 0.0
2015-Aug-20 17:33N 33°46' W 118°13'0 0.0
2015-Aug-20 16:33N 33°46' W 118°13'0 0.0
2015-Aug-20 15:33N 33°46' W 118°13'0 0.0
2015-Aug-20 14:33N 33°46' W 118°13'1 0.6
2015-Aug-20 13:33N 33°46' W 118°14'0 0.2
2015-Aug-20 12:33N 33°46' W 118°14'1 0.6
2015-Aug-20 11:33N 33°46' W 118°13'0 0.0
2015-Aug-20 10:33N 33°46' W 118°13'1 1.0
2015-Aug-20 09:33N 33°45' W 118°12'1 1.3
2015-Aug-20 08:33N 33°44' W 118°12'2 2.2
2015-Aug-20 07:32N 33°46' W 118°13'0 0.0
2015-Aug-20 06:33N 33°46' W 118°13'1 0.7
2015-Aug-20 05:33N 33°46' W 118°13'3 3.2
2015-Aug-20 04:33N 33°43' W 118°11'3 3.1
2015-Aug-20 03:33N 33°45' W 118°15'1 1.4
2015-Aug-20 02:32N 33°44' W 118°13'2 2.5
2015-Aug-20 01:33N 33°45' W 118°16'0 0.2
2015-Aug-20 00:33N 33°45' W 118°16'1 0.5
2015-Aug-19 23:33N 33°46' W 118°16'0 0.1
2015-Aug-19 22:33N 33°46' W 118°16'0 0.0
2015-Aug-19 21:32N 33°46' W 118°16'0 0.0
2015-Aug-19 20:28N 33°46' W 118°16'1 1.5
2015-Aug-19 19:33N 33°46' W 118°14'1 0.9
2015-Aug-19 18:33N 33°46' W 118°13'0 0.0
2015-Aug-19 17:33N 33°46' W 118°13'  

Dump ship's entire track history